Time;durP1;ratioP1;P1;durP2;ratioP2;P2;SDS_P1;SDS_P2;PMS_P1;PMS_P2;Temp;Humidity;BMP_temperature;BMP_pressure;BME280_temperature;BME280_humidity;BME280_pressure;Samples;Min_cycle;Max_cycle;Signal;HPM_P1;HPM_P2
2023/04/12 00:01:28;;;;;;;1.20;1.10;;;2.70;97.30;;;;;;4935660;29;20696;-87
2023/04/12 00:03:53;;;;;;;4.13;2.00;;;2.70;97.30;;;;;;4924637;29;20188;-87
2023/04/12 00:06:24;;;;;;;2.30;1.40;;;;;;;;;;4935754;29;20382;-87
2023/04/12 00:08:50;;;;;;;1.83;1.37;;;2.70;97.30;;;;;;4942480;29;20179;-87
2023/04/12 00:11:16;;;;;;;2.27;2.07;;;;;;;;;;4944660;29;20529;-87
2023/04/12 00:13:42;;;;;;;1.97;1.87;;;2.80;97.30;;;;;;4933859;29;20503;-86
2023/04/12 00:16:08;;;;;;;1.40;1.30;;;2.80;97.30;;;;;;4933973;29;20949;-87
2023/04/12 00:18:33;;;;;;;4.33;2.30;;;2.80;97.30;;;;;;4929728;29;20688;-87
2023/04/12 00:20:59;;;;;;;2.07;1.93;;;2.80;97.30;;;;;;4926107;29;20535;-89
2023/04/12 00:23:25;;;;;;;3.43;2.80;;;2.80;97.30;;;;;;4924800;29;20227;-89
2023/04/12 00:25:50;;;;;;;2.33;2.13;;;2.80;97.30;;;;;;4938157;29;20173;-87
2023/04/12 00:28:16;;;;;;;1.30;1.20;;;2.80;97.30;;;;;;4920740;29;20197;-88
2023/04/12 00:30:41;;;;;;;1.30;1.20;;;2.80;97.30;;;;;;4933072;29;20204;-88
2023/04/12 00:33:07;;;;;;;8.53;1.50;;;2.80;97.30;;;;;;4935222;29;20214;-87
2023/04/12 00:35:32;;;;;;;2.27;2.13;;;2.70;97.30;;;;;;4949363;28;20732;-87
2023/04/12 00:37:58;;;;;;;1.40;1.30;;;2.70;97.30;;;;;;4929631;29;20306;-87
2023/04/12 00:40:24;;;;;;;3.37;1.73;;;2.60;97.30;;;;;;4938489;29;20195;-88
2023/04/12 00:42:49;;;;;;;1.80;1.70;;;2.60;97.30;;;;;;4936999;29;20633;-87
2023/04/12 00:45:15;;;;;;;1.53;1.43;;;2.60;97.30;;;;;;4926865;29;20444;-86
2023/04/12 00:47:42;;;;;;;2.00;1.90;;;2.60;97.30;;;;;;4942896;29;20191;-86
2023/04/12 00:50:08;;;;;;;1.20;1.10;;;2.60;97.30;;;;;;4942157;28;20188;-87
2023/04/12 00:52:34;;;;;;;1.47;1.40;;;2.60;97.30;;;;;;4935789;29;20448;-87
2023/04/12 00:55:04;;;;;;;1.23;1.13;;;2.60;97.30;;;;;;4930860;29;20433;-87
2023/04/12 00:57:35;;;;;;;3.73;3.40;;;2.50;97.30;;;;;;4932618;29;20416;-87
2023/04/12 01:00:07;;;;;;;1.10;1.00;;;2.50;97.30;;;;;;4925426;29;20425;-87
2023/04/12 01:02:33;;;;;;;1.20;1.10;;;;;;;;;;4939177;29;20470;-87
2023/04/12 01:04:59;;;;;;;1.40;1.30;;;2.50;97.30;;;;;;4928195;29;20964;-87
2023/04/12 01:07:50;;;;;;;1.33;1.23;;;2.50;97.30;;;;;;4940654;29;20800;-88
2023/04/12 01:10:32;;;;;;;1.43;1.40;;;2.50;97.30;;;;;;4933770;29;20956;-87
2023/04/12 01:13:30;;;;;;;1.20;1.10;;;2.50;97.30;;;;;;4925177;29;20428;-87
2023/04/12 01:16:31;;;;;;;1.70;1.57;;;2.50;97.30;;;;;;4923549;29;20933;-87
2023/04/12 01:19:32;;;;;;;1.87;1.77;;;2.50;97.30;;;;;;4940314;28;20463;-87
2023/04/12 01:22:12;;;;;;;1.63;1.53;;;2.50;97.30;;;;;;4910483;29;20473;-88
2023/04/12 01:25:15;;;;;;;1.67;1.60;;;2.50;97.30;;;;;;4931505;29;20491;-83
2023/04/12 01:27:56;;;;;;;2.90;2.03;;;2.40;97.30;;;;;;4948839;28;20431;-87
2023/04/12 01:30:24;;;;;;;2.17;2.00;;;2.40;97.30;;;;;;4933142;29;20415;-87
2023/04/12 01:32:53;;;;;;;2.30;2.10;;;2.30;97.30;;;;;;4922406;29;20556;-87
2023/04/12 01:35:25;;;;;;;4.23;3.97;;;2.20;97.30;;;;;;4923125;29;20455;-88
2023/04/12 01:38:01;;;;;;;4.93;2.20;;;2.20;97.30;;;;;;4931394;29;20421;-87
2023/04/12 01:40:31;;;;;;;4.30;2.40;;;2.20;97.30;;;;;;4928671;29;20431;-87
2023/04/12 01:43:22;;;;;;;1.47;1.47;;;2.20;97.30;;;;;;4933229;29;20420;-87
2023/04/12 01:45:53;;;;;;;2.27;2.10;;;2.20;97.30;;;;;;4948590;28;20446;-87
2023/04/12 01:48:21;;;;;;;1.83;1.30;;;2.20;97.30;;;;;;4933233;29;20458;-87
2023/04/12 01:51:22;;;;;;;1.20;1.10;;;2.20;97.30;;;;;;4940763;29;21018;-87
2023/04/12 01:54:13;;;;;;;1.23;1.13;;;2.20;97.30;;;;;;4932034;29;20753;-87
2023/04/12 01:56:52;;;;;;;3.60;1.80;;;2.30;97.30;;;;;;4923411;29;20483;-87
2023/04/12 01:59:23;;;;;;;1.60;1.50;;;2.30;97.30;;;;;;4935861;28;20483;-88
2023/04/12 02:01:52;;;;;;;2.20;2.00;;;2.30;97.30;;;;;;4926943;29;20511;-87
2023/04/12 02:04:24;;;;;;;1.70;1.60;;;2.30;97.30;;;;;;4926391;29;20440;-87
2023/04/12 02:06:51;;;;;;;1.83;1.73;;;2.30;97.30;;;;;;4936126;29;20703;-88
2023/04/12 02:09:22;;;;;;;2.17;1.37;;;2.20;97.30;;;;;;4943868;28;20432;-88
2023/04/12 02:11:51;;;;;;;7.43;1.87;;;2.20;97.30;;;;;;4933194;29;20451;-87
2023/04/12 02:14:17;;;;;;;1.57;1.53;;;2.20;97.30;;;;;;4932522;29;20438;-87
2023/04/12 02:16:44;;;;;;;1.10;1.00;;;2.10;97.30;;;;;;4932226;29;20424;-87
2023/04/12 02:19:11;;;;;;;1.63;1.53;;;2.10;97.30;;;;;;4930810;29;20463;-86
2023/04/12 02:21:44;;;;;;;1.10;1.00;;;2.10;97.30;;;;;;4940927;28;20987;-86
2023/04/12 02:24:21;;;;;;;1.40;1.30;;;2.10;97.30;;;;;;4926320;29;20420;-87
2023/04/12 02:27:10;;;;;;;2.73;1.47;;;2.10;97.30;;;;;;4932143;29;20412;-87
2023/04/12 02:29:38;;;;;;;1.70;1.53;;;2.10;97.30;;;;;;4925154;29;20483;-87
2023/04/12 02:32:03;;;;;;;1.10;1.00;;;2.10;97.30;;;;;;4931922;29;20495;-87
2023/04/12 02:34:33;;;;;;;1.10;1.00;;;2.10;97.30;;;;;;4923952;29;20512;-87
2023/04/12 02:36:58;;;;;;;1.90;1.83;;;2.10;97.30;;;;;;4948211;28;20307;-86
2023/04/12 02:39:24;;;;;;;1.47;1.37;;;2.10;97.30;;;;;;4926889;29;20574;-87
2023/04/12 02:41:50;;;;;;;3.07;2.30;;;;;;;;;;4931670;29;20199;-87
2023/04/12 02:44:16;;;;;;;2.63;2.27;;;2.10;97.30;;;;;;4951876;28;20439;-90
2023/04/12 02:46:41;;;;;;;3.73;1.77;;;2.10;97.30;;;;;;4947816;28;20516;-87
2023/04/12 02:49:09;;;;;;;1.40;1.30;;;2.10;97.30;;;;;;4941812;29;20187;-87
2023/04/12 02:51:35;;;;;;;1.13;1.03;;;2.10;97.30;;;;;;4936428;29;20196;-87
2023/04/12 02:54:00;;;;;;;1.77;1.67;;;2.10;97.30;;;;;;4927642;29;20955;-89
2023/04/12 02:56:28;;;;;;;1.40;1.30;;;;;;;;;;4920990;29;20188;-87
2023/04/12 02:58:54;;;;;;;12.40;1.67;;;2.10;97.30;;;;;;4939399;29;20234;-87
2023/04/12 03:01:20;;;;;;;1.67;1.53;;;2.10;97.30;;;;;;4936814;29;20475;-87
2023/04/12 03:03:45;;;;;;;1.20;1.10;;;2.00;97.30;;;;;;4932298;29;20416;-87
2023/04/12 03:06:11;;;;;;;2.20;2.03;;;2.00;97.30;;;;;;4921772;29;20176;-87
2023/04/12 03:08:37;;;;;;;1.40;1.30;;;2.00;97.30;;;;;;4923874;29;20180;-87
2023/04/12 03:11:02;;;;;;;1.57;1.47;;;2.00;97.30;;;;;;4939375;29;20191;-87
2023/04/12 03:13:28;;;;;;;1.30;1.20;;;2.00;97.30;;;;;;4926835;29;20526;-87
2023/04/12 03:15:58;;;;;;;1.20;1.10;;;2.00;97.30;;;;;;4925660;29;20211;-87
2023/04/12 03:18:24;;;;;;;5.77;2.97;;;2.00;97.30;;;;;;4934233;29;20211;-87
2023/04/12 03:20:51;;;;;;;2.20;2.00;;;2.00;97.30;;;;;;4946685;28;20474;-89
2023/04/12 03:23:18;;;;;;;2.10;1.67;;;;;;;;;;4934219;29;20495;-87
2023/04/12 03:25:43;;;;;;;1.70;1.60;;;2.00;97.30;;;;;;4942430;29;20420;-87
2023/04/12 03:28:09;;;;;;;1.63;1.30;;;2.00;97.30;;;;;;4939377;29;20430;-87
2023/04/12 03:30:34;;;;;;;1.80;1.70;;;2.00;97.30;;;;;;4932569;29;20207;-88
2023/04/12 03:33:03;;;;;;;1.60;1.50;;;2.00;97.30;;;;;;4958998;28;20184;-87
2023/04/12 03:35:31;;;;;;;2.43;2.00;;;2.10;97.30;;;;;;4928743;29;20219;-88
2023/04/12 03:38:02;;;;;;;1.90;1.40;;;2.10;97.30;;;;;;4935294;29;20464;-89
2023/04/12 03:43:34;;;;;;;1.70;1.60;;;2.10;97.30;;;;;;4932373;29;20427;-87
2023/04/12 03:46:03;;;;;;;1.27;1.17;;;2.10;97.30;;;;;;4933420;29;20435;-87
2023/04/12 03:48:32;;;;;;;6.07;3.30;;;2.10;97.30;;;;;;4928919;29;20435;-87
2023/04/12 03:51:07;;;;;;;1.27;1.17;;;2.10;97.30;;;;;;4950634;28;20463;-88
2023/04/12 03:53:33;;;;;;;1.50;1.40;;;2.10;97.30;;;;;;4919382;29;20431;-89
2023/04/12 03:56:01;;;;;;;1.53;1.43;;;2.10;97.30;;;;;;4932480;29;20463;-86
2023/04/12 03:58:29;;;;;;;2.40;2.20;;;2.10;97.30;;;;;;4928048;29;21085;-88
2023/04/12 04:00:56;;;;;;;1.73;1.30;;;2.10;97.30;;;;;;4941007;29;20550;-87
2023/04/12 04:03:25;;;;;;;5.03;3.23;;;2.10;97.30;;;;;;4945265;29;20431;-88
2023/04/12 04:05:51;;;;;;;2.70;1.43;;;2.20;97.30;;;;;;4933998;29;20451;-88
2023/04/12 04:08:17;;;;;;;1.17;1.07;;;2.20;97.30;;;;;;4948101;28;20430;-86
2023/04/12 04:10:42;;;;;;;1.50;1.40;;;2.20;97.30;;;;;;4942780;29;20723;-88
2023/04/12 04:13:08;;;;;;;3.87;2.93;;;2.20;97.30;;;;;;4939191;29;20191;-88
2023/04/12 04:15:33;;;;;;;2.33;2.13;;;2.20;97.30;;;;;;4935054;29;20184;-88
2023/04/12 04:17:59;;;;;;;1.90;1.80;;;2.20;97.30;;;;;;4940432;29;20208;-88
2023/04/12 04:20:25;;;;;;;1.50;1.20;;;2.20;97.30;;;;;;4943199;29;20195;-87
2023/04/12 04:22:52;;;;;;;1.37;1.27;;;2.20;97.30;;;;;;4931013;29;20260;-87
2023/04/12 04:25:18;;;;;;;1.77;1.67;;;2.20;97.30;;;;;;4935437;29;20184;-88
2023/04/12 04:27:44;;;;;;;3.83;1.80;;;2.20;97.30;;;;;;4932759;29;20428;-89
2023/04/12 04:30:11;;;;;;;3.27;2.17;;;2.30;97.30;;;;;;4940745;29;20497;-87
2023/04/12 04:32:37;;;;;;;9.23;2.53;;;2.30;97.30;;;;;;4930267;29;20420;-87
2023/04/12 04:35:04;;;;;;;2.00;1.87;;;2.30;97.30;;;;;;4934177;29;20419;-86
2023/04/12 04:37:30;;;;;;;5.23;1.50;;;2.40;97.30;;;;;;4938529;28;20427;-88
2023/04/12 04:39:56;;;;;;;2.20;1.67;;;2.40;97.30;;;;;;4930148;29;20464;-87
2023/04/12 04:42:24;;;;;;;1.60;1.50;;;2.40;97.30;;;;;;4920471;29;20980;-87
2023/04/12 04:44:50;;;;;;;5.43;2.27;;;2.40;97.30;;;;;;4933412;29;20180;-87
2023/04/12 04:47:15;;;;;;;1.70;1.60;;;2.50;97.30;;;;;;4942909;29;20423;-88
2023/04/12 04:49:43;;;;;;;1.80;1.70;;;2.50;97.30;;;;;;4930464;29;20187;-88
2023/04/12 04:52:09;;;;;;;2.63;2.43;;;2.50;97.30;;;;;;4919953;29;20486;-88
2023/04/12 04:54:34;;;;;;;1.20;1.10;;;2.60;97.30;;;;;;4927115;29;20423;-88
2023/04/12 04:57:00;;;;;;;8.00;1.77;;;2.60;97.30;;;;;;4937183;28;20553;-88
2023/04/12 04:59:26;;;;;;;4.00;1.20;;;2.60;97.30;;;;;;4932151;29;20306;-87
2023/04/12 05:01:51;;;;;;;1.30;1.20;;;2.70;97.30;;;;;;4929766;29;20711;-88
2023/04/12 05:04:17;;;;;;;3.57;1.97;;;2.70;97.30;;;;;;4929074;29;20187;-88
2023/04/12 05:06:43;;;;;;;1.50;1.40;;;2.80;97.30;;;;;;4921364;29;20184;-88
2023/04/12 05:09:08;;;;;;;1.43;1.27;;;2.80;97.30;;;;;;4936793;29;20661;-87
2023/04/12 05:11:34;;;;;;;1.43;1.33;;;2.90;97.30;;;;;;4933620;28;20200;-87
2023/04/12 05:14:00;;;;;;;1.23;1.20;;;2.90;97.30;;;;;;4936909;29;20834;-87
2023/04/12 05:16:28;;;;;;;3.00;2.10;;;3.00;97.30;;;;;;4943324;29;20504;-87
2023/04/12 05:18:53;;;;;;;2.20;1.63;;;3.00;97.30;;;;;;4934204;29;20274;-88
2023/04/12 05:21:19;;;;;;;1.43;1.33;;;3.00;97.30;;;;;;4948828;28;20972;-87
2023/04/12 05:23:45;;;;;;;4.40;3.30;;;3.10;97.30;;;;;;4929705;29;20206;-87
2023/04/12 05:26:11;;;;;;;1.47;1.37;;;3.10;97.30;;;;;;4939715;28;20180;-87
2023/04/12 05:28:37;;;;;;;1.40;1.30;;;3.10;97.30;;;;;;4932888;29;20420;-88
2023/04/12 05:31:02;;;;;;;1.33;1.23;;;3.20;97.30;;;;;;4941752;28;20692;-86
2023/04/12 05:33:28;;;;;;;1.40;1.30;;;3.30;97.30;;;;;;4930363;29;20187;-87
2023/04/12 05:35:53;;;;;;;1.87;1.67;;;3.30;97.30;;;;;;4930513;29;20267;-87
2023/04/12 05:38:19;;;;;;;1.17;1.07;;;3.40;97.30;;;;;;4934173;29;20209;-89
2023/04/12 05:40:44;;;;;;;2.27;2.10;;;3.50;97.30;;;;;;4932234;29;20365;-87
2023/04/12 05:43:11;;;;;;;1.53;1.43;;;3.50;97.30;;;;;;4943711;29;20171;-87
2023/04/12 05:45:40;;;;;;;1.47;1.37;;;3.60;97.30;;;;;;4933736;29;20180;-87
2023/04/12 05:48:06;;;;;;;1.30;1.20;;;3.60;97.30;;;;;;4927308;29;20447;-86
2023/04/12 05:50:31;;;;;;;1.33;1.23;;;3.70;97.30;;;;;;4946302;28;20875;-88
2023/04/12 05:52:57;;;;;;;1.23;1.13;;;3.80;97.30;;;;;;4930112;29;20180;-86
2023/04/12 05:55:23;;;;;;;1.30;1.20;;;3.80;97.30;;;;;;4936985;29;20234;-86
2023/04/12 05:57:50;;;;;;;3.27;1.57;;;3.90;97.30;;;;;;4924589;29;20428;-87
2023/04/12 06:00:16;;;;;;;1.63;1.40;;;3.90;97.30;;;;;;4949858;28;20172;-87
2023/04/12 06:02:43;;;;;;;1.30;1.20;;;3.90;97.30;;;;;;4941737;29;20432;-87
2023/04/12 06:05:10;;;;;;;4.77;2.40;;;4.00;97.30;;;;;;4939931;28;20432;-86
2023/04/12 06:07:38;;;;;;;1.73;1.63;;;4.00;97.30;;;;;;4930437;29;20423;-87
2023/04/12 06:10:04;;;;;;;1.30;1.20;;;4.10;97.30;;;;;;4921589;29;20464;-87
2023/04/12 06:12:31;;;;;;;5.30;1.20;;;4.20;97.30;;;;;;4935984;29;20455;-87
2023/04/12 06:14:57;;;;;;;2.27;1.57;;;4.20;97.30;;;;;;4931320;29;20428;-87
2023/04/12 06:17:22;;;;;;;2.47;2.27;;;4.30;97.30;;;;;;4936380;29;20442;-87
2023/04/12 06:19:48;;;;;;;2.40;1.70;;;4.40;97.30;;;;;;4925998;29;20208;-87
2023/04/12 06:22:14;;;;;;;0.97;0.87;;;4.40;97.30;;;;;;4933405;29;20313;-87
2023/04/12 06:24:40;;;;;;;1.30;1.20;;;4.40;97.30;;;;;;4925414;29;20185;-86
2023/04/12 06:27:05;;;;;;;3.20;3.00;;;4.50;97.30;;;;;;4919894;29;20955;-88
2023/04/12 06:29:31;;;;;;;2.70;1.30;;;4.60;97.30;;;;;;4939429;29;20187;-88
2023/04/12 06:32:01;;;;;;;1.37;1.27;;;4.70;97.30;;;;;;4925202;29;20230;-87
2023/04/12 06:34:26;;;;;;;2.60;1.90;;;4.90;97.30;;;;;;4932672;29;20743;-87
2023/04/12 06:36:52;;;;;;;0.97;0.87;;;5.00;97.30;;;;;;4938470;29;20471;-87
2023/04/12 06:39:20;;;;;;;1.47;1.37;;;5.20;97.30;;;;;;4939645;29;20246;-87
2023/04/12 06:41:46;;;;;;;1.50;1.40;;;5.40;97.30;;;;;;4937901;29;20195;-87
2023/04/12 06:44:12;;;;;;;1.83;1.73;;;5.50;97.30;;;;;;4927424;29;20428;-87
2023/04/12 06:46:37;;;;;;;1.10;1.00;;;5.60;97.30;;;;;;4924611;29;20424;-88
2023/04/12 06:49:03;;;;;;;2.40;1.27;;;5.80;97.30;;;;;;4918238;29;20184;-88
2023/04/12 06:51:29;;;;;;;3.03;2.83;;;5.90;97.30;;;;;;4931820;29;20215;-88
2023/04/12 06:53:56;;;;;;;1.00;0.90;;;6.00;97.30;;;;;;4936166;29;20553;-88
2023/04/12 06:56:22;;;;;;;2.13;1.47;;;6.20;97.30;;;;;;4942642;29;20413;-89
2023/04/12 06:58:50;;;;;;;1.10;1.00;;;6.30;97.30;;;;;;4930272;29;20466;-88
2023/04/12 07:01:16;;;;;;;1.60;1.50;;;6.40;97.30;;;;;;4936080;28;20756;-88
2023/04/12 07:03:42;;;;;;;1.00;0.90;;;6.60;97.30;;;;;;4934985;29;20416;-88
2023/04/12 07:06:10;;;;;;;1.43;1.33;;;6.80;97.30;;;;;;4935157;29;20439;-89
2023/04/12 07:08:38;;;;;;;1.10;1.00;;;6.90;97.30;;;;;;4931960;29;20552;-89
2023/04/12 07:11:03;;;;;;;1.60;1.50;;;7.10;97.30;;;;;;4934604;29;21070;-88
2023/04/12 07:13:32;;;;;;;1.47;1.37;;;7.30;97.30;;;;;;4937673;29;20435;-87
2023/04/12 07:15:59;;;;;;;7.77;1.60;;;7.40;97.30;;;;;;4941029;29;20664;-88
2023/04/12 07:18:25;;;;;;;2.17;2.00;;;7.50;97.30;;;;;;4923677;29;20460;-88
2023/04/12 07:20:53;;;;;;;1.07;0.97;;;7.70;97.30;;;;;;4922808;29;20972;-89
2023/04/12 07:23:19;;;;;;;1.00;0.90;;;8.00;97.30;;;;;;4934939;29;20314;-88
2023/04/12 07:25:45;;;;;;;1.40;1.30;;;8.10;97.30;;;;;;4932085;29;20498;-89
2023/04/12 07:28:10;;;;;;;2.03;1.90;;;8.30;97.30;;;;;;4924496;29;20183;-89
2023/04/12 07:30:38;;;;;;;1.10;1.10;;;8.40;97.30;;;;;;4924339;29;20512;-89
2023/04/12 07:33:04;;;;;;;1.87;1.27;;;8.60;97.30;;;;;;4931589;29;20256;-89
2023/04/12 07:35:30;;;;;;;1.10;1.00;;;8.80;97.30;;;;;;4926509;29;20466;-89
2023/04/12 07:37:56;;;;;;;1.10;1.00;;;8.90;97.30;;;;;;4929981;29;20929;-89
2023/04/12 07:40:23;;;;;;;1.50;1.40;;;9.10;97.30;;;;;;4934795;29;20422;-89
2023/04/12 07:42:48;;;;;;;1.00;0.90;;;9.30;97.30;;;;;;4933924;29;20181;-93
2023/04/12 07:45:13;;;;;;;1.30;1.20;;;9.50;97.30;;;;;;4944730;29;20541;-89
2023/04/12 07:47:39;;;;;;;5.60;2.47;;;9.60;97.30;;;;;;4941280;29;20307;-93
2023/04/12 07:50:05;;;;;;;1.20;1.10;;;9.70;97.10;;;;;;4949935;28;20225;-93
2023/04/12 07:52:31;;;;;;;1.30;1.30;;;9.90;97.30;;;;;;4958591;28;20297;-92
2023/04/12 07:54:59;;;;;;;1.30;1.20;;;10.00;96.20;;;;;;4959291;28;20420;-92
2023/04/12 07:57:25;;;;;;;1.20;1.10;;;10.20;97.10;;;;;;4950772;28;20191;-92
2023/04/12 07:59:51;;;;;;;1.93;1.83;;;10.40;95.70;;;;;;4956214;29;20454;-92
2023/04/12 08:02:23;;;;;;;1.40;1.30;;;10.60;95.50;;;;;;4956627;28;20467;-92
2023/04/12 08:04:49;;;;;;;2.90;1.83;;;10.70;95.30;;;;;;4956409;29;20184;-92
2023/04/12 08:07:15;;;;;;;1.10;1.00;;;10.80;94.20;;;;;;4938180;29;20427;-91
2023/04/12 08:09:40;;;;;;;1.10;1.00;;;11.00;93.80;;;;;;4934215;29;20494;-92
2023/04/12 08:12:06;;;;;;;1.43;1.33;;;;;;;;;;4935934;29;20203;-90
2023/04/12 08:14:32;;;;;;;2.00;1.90;;;11.20;92.80;;;;;;4933532;29;20196;-91
2023/04/12 08:16:57;;;;;;;1.30;1.20;;;11.20;92.10;;;;;;4937438;29;20431;-89
2023/04/12 08:19:23;;;;;;;1.10;1.00;;;;;;;;;;4930212;29;20211;-90
2023/04/12 08:21:49;;;;;;;3.93;1.40;;;11.50;91.90;;;;;;4944633;29;20329;-90
2023/04/12 08:24:14;;;;;;;1.33;1.23;;;11.70;91.10;;;;;;4933120;29;20431;-91
2023/04/12 08:26:40;;;;;;;2.13;1.57;;;11.70;90.90;;;;;;4951782;28;20180;-90
2023/04/12 08:29:13;;;;;;;1.00;0.90;;;11.70;91.50;;;;;;4939126;29;20176;-91
2023/04/12 08:31:41;;;;;;;1.00;0.90;;;11.70;91.30;;;;;;4935987;29;21006;-91
2023/04/12 08:34:09;;;;;;;1.37;1.27;;;11.90;91.20;;;;;;4943996;29;20427;-90
2023/04/12 08:36:40;;;;;;;3.83;2.50;;;12.00;90.50;;;;;;4934281;29;20432;-91
2023/04/12 08:39:22;;;;;;;1.07;0.97;;;;;;;;;;4936996;29;20566;-90
2023/04/12 08:41:52;;;;;;;0.97;0.87;;;12.20;90.10;;;;;;4951686;28;20445;-89
2023/04/12 08:44:52;;;;;;;1.77;1.40;;;12.20;89.80;;;;;;4923958;28;20417;-90
2023/04/12 08:47:21;;;;;;;1.83;1.00;;;12.20;90.60;;;;;;4931771;29;20575;-90
2023/04/12 08:49:46;;;;;;;2.13;1.30;;;12.20;89.50;;;;;;4943014;28;20431;-89
2023/04/12 08:52:12;;;;;;;1.57;1.43;;;12.20;90.10;;;;;;4930616;29;20447;-90
2023/04/12 08:54:38;;;;;;;1.10;1.00;;;12.20;88.70;;;;;;4944055;29;20648;-88
2023/04/12 08:57:06;;;;;;;1.10;1.00;;;12.20;89.10;;;;;;4925612;29;20665;-91
2023/04/12 08:59:34;;;;;;;1.33;1.30;;;12.40;89.50;;;;;;4928565;29;20240;-92
2023/04/12 09:02:00;;;;;;;1.20;1.10;;;12.50;89.10;;;;;;4942601;29;20474;-89
2023/04/12 09:04:25;;;;;;;2.13;1.60;;;12.60;89.40;;;;;;4942158;29;20949;-90
2023/04/12 09:06:51;;;;;;;1.10;1.00;;;12.90;89.20;;;;;;4935637;29;20564;-88
2023/04/12 09:09:17;;;;;;;1.00;0.90;;;13.00;87.60;;;;;;4937056;29;20208;-89
2023/04/12 09:11:42;;;;;;;8.73;2.03;;;13.00;87.60;;;;;;4925632;29;20215;-89
2023/04/12 09:14:21;;;;;;;1.10;1.00;;;;;;;;;;4936493;29;20712;-90
2023/04/12 09:16:47;;;;;;;1.63;1.47;;;12.70;88.00;;;;;;4947215;28;20194;-90
2023/04/12 09:19:14;;;;;;;1.33;1.30;;;;;;;;;;4944404;29;20554;-90
2023/04/12 09:21:55;;;;;;;1.37;1.20;;;12.90;88.40;;;;;;4946520;29;20866;-90
2023/04/12 09:24:24;;;;;;;1.30;1.20;;;13.10;88.90;;;;;;4923585;29;20458;-90
2023/04/12 09:27:06;;;;;;;1.30;1.20;;;13.20;89.10;;;;;;4935312;29;20424;-89
2023/04/12 09:29:33;;;;;;;1.10;1.00;;;13.30;87.40;;;;;;4935516;29;20485;-90
2023/04/12 09:32:11;;;;;;;3.07;1.10;;;13.20;87.90;;;;;;4940252;29;20535;-90
2023/04/12 09:34:37;;;;;;;1.20;1.10;;;13.30;88.60;;;;;;4935221;29;20462;-91
2023/04/12 09:37:14;;;;;;;0.97;0.87;;;13.50;88.50;;;;;;4942490;29;20423;-90
2023/04/12 09:39:41;;;;;;;3.00;2.00;;;13.70;87.90;;;;;;4947533;29;20462;-90
2023/04/12 09:42:10;;;;;;;1.33;1.23;;;13.70;87.00;;;;;;4943169;29;20451;-91
2023/04/12 09:44:36;;;;;;;1.30;1.20;;;13.80;86.70;;;;;;4935333;29;20427;-90
2023/04/12 09:47:05;;;;;;;1.90;1.80;;;;;;;;;;4941159;29;20438;-89
2023/04/12 09:49:49;;;;;;;1.00;0.90;;;14.00;84.50;;;;;;4948022;29;20831;-89
2023/04/12 09:52:15;;;;;;;1.53;1.43;;;14.00;83.50;;;;;;4941619;29;20539;-89
2023/04/12 09:54:48;;;;;;;10.13;2.20;;;13.90;82.30;;;;;;4939041;29;20862;-89
2023/04/12 09:57:20;;;;;;;2.00;1.40;;;13.90;83.40;;;;;;4940909;29;20204;-91
2023/04/12 09:59:48;;;;;;;1.83;1.73;;;14.00;83.70;;;;;;4960832;29;20458;-92
2023/04/12 10:02:16;;;;;;;2.40;1.70;;;14.10;83.00;;;;;;4938741;29;20440;-90
2023/04/12 10:04:44;;;;;;;1.10;1.00;;;14.00;82.90;;;;;;4928908;29;20429;-91
2023/04/12 10:07:14;;;;;;;1.83;1.73;;;14.10;82.90;;;;;;4933114;29;20420;-91
2023/04/12 10:09:40;;;;;;;1.10;1.00;;;14.10;83.10;;;;;;4944889;29;20460;-90
2023/04/12 10:12:07;;;;;;;1.60;1.50;;;14.20;83.00;;;;;;4937514;29;20456;-90
2023/04/12 10:14:33;;;;;;;1.20;1.10;;;14.40;83.10;;;;;;4944226;28;20447;-88
2023/04/12 10:17:00;;;;;;;1.67;1.37;;;14.50;82.30;;;;;;4931554;29;20424;-90
2023/04/12 10:19:28;;;;;;;1.20;1.10;;;;;;;;;;4933428;28;20212;-89
2023/04/12 10:21:55;;;;;;;1.70;1.60;;;14.70;82.50;;;;;;4942073;29;20475;-91
2023/04/12 10:24:25;;;;;;;2.13;0.90;;;14.60;82.50;;;;;;4953105;28;20422;-90
2023/04/12 10:26:54;;;;;;;1.87;1.77;;;14.50;82.40;;;;;;4935632;29;20428;-90
2023/04/12 10:29:24;;;;;;;0.90;0.80;;;14.50;83.00;;;;;;4944277;29;21029;-89
2023/04/12 10:31:50;;;;;;;1.50;1.17;;;14.40;83.10;;;;;;4930979;29;20976;-90
2023/04/12 10:34:16;;;;;;;0.90;0.80;;;14.30;82.20;;;;;;4941135;29;20474;-90
2023/04/12 10:36:59;;;;;;;1.10;1.00;;;14.30;83.70;;;;;;4931820;29;20982;-91
2023/04/12 10:39:50;;;;;;;1.57;1.10;;;14.30;82.70;;;;;;4937516;29;20207;-89
2023/04/12 10:42:17;;;;;;;6.77;1.20;;;14.20;82.00;;;;;;4941805;29;20450;-89
2023/04/12 10:44:43;;;;;;;1.20;1.10;;;14.10;81.30;;;;;;4942289;28;20471;-89
2023/04/12 10:47:10;;;;;;;1.20;1.10;;;13.90;82.20;;;;;;4927219;29;20416;-92
2023/04/12 10:49:36;;;;;;;3.60;2.50;;;13.70;83.10;;;;;;4931162;29;20416;-90
2023/04/12 10:52:08;;;;;;;1.00;0.90;;;13.70;84.00;;;;;;4932021;29;20522;-89
2023/04/12 10:54:34;;;;;;;2.03;1.90;;;13.70;83.10;;;;;;4937773;28;20424;-90
2023/04/12 10:57:01;;;;;;;13.77;1.23;;;13.60;84.20;;;;;;4938437;28;20428;-91
2023/04/12 10:59:50;;;;;;;1.13;1.03;;;13.60;83.70;;;;;;4925499;29;20561;-90
2023/04/12 11:02:18;;;;;;;1.10;1.00;;;13.60;84.50;;;;;;4935982;29;20527;-90
2023/04/12 11:05:09;;;;;;;1.70;1.43;;;13.60;84.10;;;;;;4925720;29;20901;-91
2023/04/12 11:07:43;;;;;;;1.17;1.07;;;13.70;85.10;;;;;;4940525;28;20531;-89
2023/04/12 11:10:14;;;;;;;1.30;1.20;;;13.80;83.80;;;;;;4937632;29;20459;-90
2023/04/12 11:12:40;;;;;;;1.20;1.10;;;13.70;84.60;;;;;;4938893;29;20429;-91
2023/04/12 11:15:06;;;;;;;1.00;0.90;;;13.80;84.80;;;;;;4937471;29;20434;-90
2023/04/12 11:17:32;;;;;;;1.20;1.10;;;13.80;84.70;;;;;;4936450;29;20522;-90
2023/04/12 11:20:02;;;;;;;1.87;1.77;;;13.80;84.20;;;;;;4951798;28;21031;-90
2023/04/12 11:22:30;;;;;;;1.23;1.20;;;13.80;83.50;;;;;;4927427;29;20232;-90
2023/04/12 11:25:00;;;;;;;1.23;1.20;;;13.70;83.60;;;;;;4931041;28;20424;-88
2023/04/12 11:27:27;;;;;;;1.20;1.10;;;13.70;83.10;;;;;;4928866;29;20564;-90
2023/04/12 11:29:57;;;;;;;4.07;1.53;;;13.70;83.30;;;;;;4926733;29;20431;-89
2023/04/12 11:32:29;;;;;;;2.00;1.90;;;13.80;84.30;;;;;;4929556;29;21063;-91
2023/04/12 11:34:57;;;;;;;5.90;1.47;;;13.90;83.60;;;;;;4938608;28;20507;-90
2023/04/12 11:37:25;;;;;;;1.30;1.10;;;14.00;83.60;;;;;;4938939;28;20791;-89
2023/04/12 11:39:54;;;;;;;1.07;0.97;;;14.10;84.90;;;;;;4936176;29;21013;-90
2023/04/12 11:42:25;;;;;;;1.40;1.30;;;14.20;84.30;;;;;;4936326;29;20447;-90
2023/04/12 11:44:51;;;;;;;3.30;1.53;;;14.40;85.50;;;;;;4936707;29;20415;-89
2023/04/12 11:47:19;;;;;;;1.13;1.03;;;14.50;84.20;;;;;;4942175;29;20412;-90
2023/04/12 11:49:51;;;;;;;3.27;1.00;;;14.40;83.60;;;;;;4943409;28;20420;-90
2023/04/12 11:52:17;;;;;;;1.40;1.30;;;14.30;83.50;;;;;;4933023;29;20443;-91
2023/04/12 11:54:47;;;;;;;1.43;1.33;;;14.10;83.80;;;;;;4929094;29;20455;-89
2023/04/12 11:57:17;;;;;;;1.63;1.37;;;14.00;83.50;;;;;;4930637;29;20960;-89
2023/04/12 11:59:45;;;;;;;6.87;2.57;;;13.90;84.00;;;;;;4929635;29;20468;-88
2023/04/12 12:02:12;;;;;;;1.90;1.80;;;13.90;84.00;;;;;;4937615;29;20822;-91
2023/04/12 12:04:39;;;;;;;1.20;1.10;;;13.90;84.20;;;;;;4935879;29;20989;-91
2023/04/12 12:07:06;;;;;;;1.43;1.37;;;13.90;84.40;;;;;;4941791;29;21033;-90
2023/04/12 12:09:31;;;;;;;1.73;1.17;;;13.90;84.40;;;;;;4942946;29;20466;-89
2023/04/12 12:12:02;;;;;;;1.33;1.30;;;13.90;84.30;;;;;;4942268;29;20489;-93
2023/04/12 12:14:28;;;;;;;1.30;1.20;;;13.80;84.10;;;;;;4936391;29;20275;-90
2023/04/12 12:16:58;;;;;;;2.93;2.20;;;13.70;83.60;;;;;;4939346;29;20563;-90
2023/04/12 12:19:41;;;;;;;1.87;1.03;;;13.60;84.60;;;;;;4944078;28;20696;-92
2023/04/12 12:22:18;;;;;;;1.50;1.40;;;13.50;85.00;;;;;;4946345;28;20840;-90
2023/04/12 12:24:54;;;;;;;1.00;0.90;;;13.40;86.40;;;;;;4946069;28;20648;-91
2023/04/12 12:27:43;;;;;;;1.13;1.13;;;13.30;86.80;;;;;;4921192;29;20467;-90
2023/04/12 12:30:10;;;;;;;1.30;1.10;;;13.20;87.50;;;;;;4942959;28;20424;-89
2023/04/12 12:32:37;;;;;;;11.40;2.50;;;13.10;88.10;;;;;;4928430;29;20499;-88
2023/04/12 12:35:09;;;;;;;11.73;1.90;;;13.00;88.80;;;;;;4922728;29;20424;-88
2023/04/12 12:37:34;;;;;;;1.20;0.90;;;12.80;89.70;;;;;;4931656;29;20429;-89
2023/04/12 12:40:01;;;;;;;2.00;1.63;;;12.70;90.20;;;;;;4934649;29;20972;-89
2023/04/12 12:42:27;;;;;;;1.20;1.10;;;12.60;90.60;;;;;;4941496;29;20582;-88
2023/04/12 12:44:53;;;;;;;1.00;0.90;;;12.50;92.10;;;;;;4941599;28;20423;-90
2023/04/12 12:47:18;;;;;;;1.00;0.90;;;12.30;93.30;;;;;;4935807;29;20813;-91
2023/04/12 12:49:44;;;;;;;1.77;1.67;;;12.20;94.50;;;;;;4940586;29;20180;-90
2023/04/12 12:52:12;;;;;;;1.13;1.03;;;12.10;95.50;;;;;;4940868;29;20227;-90
2023/04/12 12:54:37;;;;;;;1.00;0.90;;;11.90;96.70;;;;;;4944451;29;20266;-91
2023/04/12 12:57:03;;;;;;;3.53;1.87;;;11.80;97.30;;;;;;4942039;29;20420;-90
2023/04/12 12:59:28;;;;;;;0.90;0.80;;;11.60;97.30;;;;;;4948118;29;20473;-90
2023/04/12 13:01:54;;;;;;;1.13;1.03;;;11.40;97.30;;;;;;4958255;29;20204;-93
2023/04/12 13:04:20;;;;;;;1.00;0.90;;;11.20;97.30;;;;;;4959545;28;20187;-89
2023/04/12 13:06:45;;;;;;;1.50;1.40;;;11.00;97.30;;;;;;4954142;29;20208;-92
2023/04/12 13:09:11;;;;;;;1.10;1.00;;;10.90;97.30;;;;;;4958745;29;20184;-93